createdAt,value
2023-05-08T00:01:26.029Z,2.50
2023-05-08T00:03:57.208Z,2.42
2023-05-08T00:06:31.403Z,2.70
2023-05-08T00:09:02.361Z,2.65
2023-05-08T00:11:33.192Z,2.05
2023-05-08T00:14:04.016Z,2.40
2023-05-08T00:16:36.001Z,3.08
2023-05-08T00:19:07.255Z,3.05
2023-05-08T00:21:40.809Z,2.65
2023-05-08T00:24:11.950Z,2.35
2023-05-08T00:26:44.620Z,2.42
2023-05-08T00:29:15.539Z,2.97
2023-05-08T00:31:46.491Z,2.17
2023-05-08T00:34:17.592Z,2.30
2023-05-08T00:36:51.215Z,2.97
2023-05-08T00:39:22.423Z,2.53
2023-05-08T00:41:53.372Z,2.70
2023-05-08T00:44:24.408Z,2.58
2023-05-08T00:46:55.466Z,2.90
2023-05-08T00:49:26.636Z,2.65
2023-05-08T00:52:00.642Z,3.30
2023-05-08T00:54:31.702Z,2.85
2023-05-08T00:57:03.743Z,2.58
2023-05-08T00:59:35.103Z,2.97
2023-05-08T01:02:06.901Z,2.55
2023-05-08T01:04:40.181Z,2.40
2023-05-08T01:07:14.515Z,3.13
2023-05-08T01:09:45.375Z,3.13
2023-05-08T01:12:26.221Z,2.80
2023-05-08T01:15:09.519Z,2.60
2023-05-08T01:17:49.197Z,3.03
2023-05-08T01:20:54.402Z,2.50
2023-05-08T01:23:59.624Z,2.65
2023-05-08T01:27:00.915Z,2.80
2023-05-08T01:30:03.388Z,2.80
2023-05-08T01:32:42.346Z,2.28
2023-05-08T01:35:20.851Z,3.00
2023-05-08T01:37:59.126Z,3.15
2023-05-08T01:40:38.251Z,3.28
2023-05-08T01:43:28.414Z,3.05
2023-05-08T01:46:02.586Z,2.90
2023-05-08T01:48:38.789Z,3.20
2023-05-08T01:51:15.329Z,3.20
2023-05-08T01:53:50.944Z,3.42
2023-05-08T01:56:26.046Z,3.80
2023-05-08T01:58:59.980Z,3.00
2023-05-08T02:01:32.240Z,3.22
2023-05-08T02:04:09.615Z,3.28
2023-05-08T02:06:42.832Z,3.22
2023-05-08T02:09:15.117Z,3.05
2023-05-08T02:11:47.382Z,2.90
2023-05-08T02:14:24.358Z,2.97
2023-05-08T02:16:57.964Z,3.40
2023-05-08T02:19:33.455Z,3.35
2023-05-08T02:22:04.597Z,3.50
2023-05-08T02:24:36.961Z,2.92
2023-05-08T02:27:08.755Z,2.78
2023-05-08T02:29:40.501Z,3.55
2023-05-08T02:32:12.492Z,3.30
2023-05-08T02:34:55.215Z,3.78
2023-05-08T02:37:34.534Z,3.47
2023-05-08T02:40:07.524Z,3.70
2023-05-08T02:42:38.666Z,3.35
2023-05-08T02:45:12.472Z,4.15
2023-05-08T02:47:50.673Z,3.25
2023-05-08T02:50:27.349Z,3.53
2023-05-08T02:53:06.343Z,4.28
2023-05-08T02:55:43.406Z,3.97
2023-05-08T02:58:22.178Z,3.95
2023-05-08T03:01:00.174Z,3.90
2023-05-08T03:03:41.363Z,4.10
2023-05-08T03:06:18.771Z,3.22
2023-05-08T03:08:51.723Z,3.40
2023-05-08T03:11:27.591Z,4.00
2023-05-08T03:16:38.238Z,3.90
2023-05-08T03:19:20.833Z,3.30
2023-05-08T03:22:01.324Z,4.68
2023-05-08T03:24:35.714Z,3.45
2023-05-08T03:27:08.426Z,3.67
2023-05-08T03:29:41.552Z,3.75
2023-05-08T03:32:12.616Z,3.58
2023-05-08T03:34:44.434Z,3.92
2023-05-08T03:37:18.069Z,3.38
2023-05-08T03:39:49.167Z,3.67
2023-05-08T03:42:21.780Z,3.53
2023-05-08T03:44:54.597Z,3.70
2023-05-08T03:47:29.314Z,3.45
2023-05-08T03:50:02.161Z,3.70
2023-05-08T03:52:36.484Z,3.55
2023-05-08T03:55:08.109Z,4.30
2023-05-08T03:57:49.024Z,3.65
2023-05-08T04:00:28.425Z,4.07
2023-05-08T04:03:17.301Z,4.03
2023-05-08T04:05:58.976Z,3.88
2023-05-08T04:08:41.184Z,3.63
2023-05-08T04:11:21.546Z,3.78
2023-05-08T04:13:55.481Z,3.42
2023-05-08T04:16:30.113Z,3.60
2023-05-08T04:19:04.987Z,3.83
2023-05-08T04:21:38.516Z,3.72
2023-05-08T04:24:16.442Z,4.47
2023-05-08T04:26:49.632Z,3.70
2023-05-08T04:29:21.874Z,3.60
2023-05-08T04:31:53.949Z,3.90
2023-05-08T04:34:24.944Z,3.85
2023-05-08T04:36:56.417Z,3.97
2023-05-08T04:39:29.969Z,3.88
2023-05-08T04:42:03.949Z,4.13
2023-05-08T04:44:37.823Z,3.47
2023-05-08T04:47:08.871Z,3.97
2023-05-08T04:49:39.879Z,3.65
2023-05-08T04:52:10.930Z,3.85
2023-05-08T04:54:44.776Z,4.68
2023-05-08T04:57:15.719Z,3.70
2023-05-08T04:59:46.827Z,4.00
2023-05-08T05:02:18.350Z,3.92
2023-05-08T05:04:50.646Z,3.90
2023-05-08T05:07:21.513Z,4.72
2023-05-08T05:09:55.076Z,4.22
2023-05-08T05:12:26.018Z,4.40
2023-05-08T05:14:57.962Z,3.83
2023-05-08T05:17:31.348Z,4.45
2023-05-08T05:20:03.419Z,4.15
2023-05-08T05:22:36.270Z,4.10
2023-05-08T05:25:10.684Z,4.55
2023-05-08T05:27:42.260Z,4.10
2023-05-08T05:30:15.240Z,4.28
2023-05-08T05:32:46.357Z,4.47
2023-05-08T05:35:17.376Z,4.18
2023-05-08T05:37:48.326Z,3.65
2023-05-08T05:40:22.528Z,3.50
2023-05-08T05:42:54.117Z,3.90
2023-05-08T05:45:24.954Z,3.95
2023-05-08T05:47:55.808Z,4.10
2023-05-08T05:50:29.654Z,4.35
2023-05-08T05:53:01.493Z,3.13
2023-05-08T05:55:35.905Z,3.55
2023-05-08T05:58:06.930Z,3.92
2023-05-08T06:00:39.101Z,2.80
2023-05-08T06:03:11.519Z,3.63
2023-05-08T06:05:42.606Z,3.90
2023-05-08T06:08:13.865Z,4.53
2023-05-08T06:10:49.676Z,4.70
2023-05-08T06:13:21.370Z,4.20
2023-05-08T06:15:52.725Z,4.10
2023-05-08T06:18:23.548Z,3.80
2023-05-08T06:21:00.021Z,4.00
2023-05-08T06:23:31.486Z,4.47
2023-05-08T06:26:04.994Z,4.15
2023-05-08T06:28:35.823Z,4.03
2023-05-08T06:31:06.860Z,4.43
2023-05-08T06:33:37.805Z,3.83
2023-05-08T06:36:09.676Z,5.13
2023-05-08T06:38:40.766Z,4.40
2023-05-08T06:41:15.410Z,4.53
2023-05-08T06:43:46.408Z,4.05
2023-05-08T06:46:17.330Z,4.40
2023-05-08T06:48:48.345Z,4.95
2023-05-08T06:51:20.220Z,4.03
2023-05-08T06:53:51.634Z,4.43
2023-05-08T06:56:25.160Z,5.00
2023-05-08T06:59:04.880Z,4.15
2023-05-08T07:01:39.005Z,4.63
2023-05-08T07:04:09.982Z,4.20
2023-05-08T07:06:41.074Z,7.95
2023-05-08T07:09:13.473Z,7.35
2023-05-08T07:11:47.079Z,6.00
2023-05-08T07:14:18.015Z,5.10
2023-05-08T07:16:49.195Z,10.13
2023-05-08T07:19:22.402Z,11.60
2023-05-08T07:21:53.640Z,5.32
2023-05-08T07:24:25.328Z,5.00
2023-05-08T07:27:00.373Z,4.47
2023-05-08T07:29:31.329Z,4.07
2023-05-08T07:32:02.321Z,4.70
2023-05-08T07:34:36.291Z,4.55
2023-05-08T07:37:07.242Z,5.15
2023-05-08T07:39:38.340Z,4.63
2023-05-08T07:42:12.184Z,4.30
2023-05-08T07:44:53.893Z,4.80
2023-05-08T07:47:26.143Z,4.90
2023-05-08T07:49:57.318Z,5.25
2023-05-08T07:52:28.242Z,4.45
2023-05-08T07:54:59.230Z,4.85
2023-05-08T07:57:40.507Z,5.10
2023-05-08T08:00:13.637Z,4.88
2023-05-08T08:02:44.723Z,4.88
2023-05-08T08:05:16.163Z,5.07
2023-05-08T08:07:47.297Z,3.70
2023-05-08T08:10:18.155Z,5.57
2023-05-08T08:12:51.828Z,5.25
2023-05-08T08:15:23.022Z,5.68
2023-05-08T08:17:53.918Z,5.55
2023-05-08T08:20:25.078Z,4.15
2023-05-08T08:22:55.963Z,7.22
2023-05-08T08:25:28.116Z,5.10
2023-05-08T08:28:01.917Z,4.70
2023-05-08T08:30:32.893Z,5.90
2023-05-08T08:33:03.815Z,5.05
2023-05-08T08:35:35.847Z,5.10
2023-05-08T08:38:06.774Z,2.83
2023-05-08T08:40:43.503Z,4.75
2023-05-08T08:43:16.972Z,5.40
2023-05-08T08:45:49.216Z,4.95
2023-05-08T08:48:20.276Z,5.32
2023-05-08T08:50:56.118Z,2.78
2023-05-08T08:53:30.178Z,4.63
2023-05-08T08:56:04.136Z,3.78
2023-05-08T08:58:42.813Z,4.95
2023-05-08T09:01:19.995Z,3.83
2023-05-08T09:03:51.635Z,4.13
2023-05-08T09:06:23.299Z,4.75
2023-05-08T09:08:58.179Z,4.68
2023-05-08T09:11:29.222Z,3.88
2023-05-08T09:14:03.869Z,2.17
2023-05-08T09:16:34.983Z,3.05
2023-05-08T09:19:06.543Z,2.95
2023-05-08T09:21:38.102Z,3.83
2023-05-08T09:24:10.197Z,4.40
2023-05-08T09:26:44.231Z,4.07
2023-05-08T09:29:19.503Z,2.67
2023-05-08T09:31:52.108Z,2.05
2023-05-08T09:34:28.696Z,3.55
2023-05-08T09:37:14.142Z,2.83
2023-05-08T09:39:47.453Z,2.92
2023-05-08T09:42:18.343Z,1.77
2023-05-08T09:44:54.155Z,3.30
2023-05-08T09:47:26.297Z,3.05
2023-05-08T09:50:05.395Z,2.70
2023-05-08T09:52:37.638Z,3.25
2023-05-08T09:55:10.794Z,2.00
2023-05-08T09:57:42.942Z,1.98
2023-05-08T10:00:17.937Z,1.45
2023-05-08T10:02:59.131Z,2.30
2023-05-08T10:05:34.818Z,2.30
2023-05-08T10:08:24.252Z,2.45
2023-05-08T10:10:55.271Z,2.22
2023-05-08T10:13:26.525Z,1.75
2023-05-08T10:16:01.097Z,1.90
2023-05-08T10:18:38.493Z,2.10
2023-05-08T10:21:11.332Z,1.77
2023-05-08T10:23:43.319Z,1.52
2023-05-08T10:26:16.926Z,1.40
2023-05-08T10:28:53.627Z,1.35
2023-05-08T10:34:03.433Z,1.30
2023-05-08T10:36:35.015Z,1.00
2023-05-08T10:39:05.957Z,1.35
2023-05-08T10:41:39.301Z,1.33
2023-05-08T10:44:11.772Z,1.00
2023-05-08T10:46:55.116Z,1.02
2023-05-08T10:49:34.908Z,1.58
2023-05-08T10:52:17.253Z,1.40
2023-05-08T10:55:17.988Z,1.73
2023-05-08T10:58:07.622Z,2.10
2023-05-08T11:01:19.651Z,1.35
2023-05-08T11:03:56.209Z,1.30
2023-05-08T11:09:22.330Z,1.48
2023-05-08T11:12:10.411Z,1.63
2023-05-08T11:14:45.398Z,1.27
2023-05-08T11:17:16.421Z,1.35
2023-05-08T11:20:00.369Z,1.40
2023-05-08T11:22:33.387Z,1.20
2023-05-08T11:25:07.428Z,1.27
2023-05-08T11:27:43.781Z,1.40
2023-05-08T11:30:37.948Z,1.02
2023-05-08T11:33:19.689Z,1.20
2023-05-08T11:35:58.400Z,1.00
2023-05-08T11:38:36.361Z,1.30
2023-05-08T11:41:10.200Z,0.88
2023-05-08T11:44:10.502Z,1.10
2023-05-08T11:46:46.121Z,1.17
2023-05-08T11:49:23.780Z,1.17
2023-05-08T11:52:04.110Z,1.52
2023-05-08T11:54:35.456Z,1.55
2023-05-08T11:57:06.529Z,1.30
2023-05-08T11:59:39.942Z,1.60
2023-05-08T12:02:11.420Z,1.67
2023-05-08T12:04:49.769Z,1.60
2023-05-08T12:07:24.276Z,1.60
2023-05-08T12:09:55.182Z,1.77
2023-05-08T12:12:26.280Z,1.65
2023-05-08T12:14:57.566Z,1.48
2023-05-08T12:17:28.562Z,1.33
2023-05-08T12:20:04.477Z,2.10
2023-05-08T12:22:38.094Z,1.38
2023-05-08T12:25:10.468Z,1.67
2023-05-08T12:27:41.665Z,2.92
2023-05-08T12:30:14.926Z,1.17
2023-05-08T12:32:46.853Z,1.48
2023-05-08T12:35:18.627Z,1.60
2023-05-08T12:37:53.658Z,1.60
2023-05-08T12:40:30.637Z,1.88
2023-05-08T12:43:04.013Z,1.63
2023-05-08T12:45:37.159Z,1.50
2023-05-08T12:48:09.869Z,1.63
2023-05-08T12:50:42.332Z,1.23
2023-05-08T12:53:18.426Z,1.35
2023-05-08T12:55:56.178Z,1.70
2023-05-08T12:58:29.728Z,1.50
2023-05-08T13:01:13.760Z,1.90
2023-05-08T13:03:47.217Z,1.25
2023-05-08T13:08:59.431Z,2.45
2023-05-08T13:11:34.722Z,1.58
2023-05-08T13:14:06.138Z,1.88
2023-05-08T13:16:48.093Z,1.85
2023-05-08T13:19:22.068Z,1.60
2023-05-08T13:21:53.391Z,1.88
2023-05-08T13:24:27.358Z,2.00
2023-05-08T13:26:58.526Z,1.83
2023-05-08T13:29:29.516Z,1.75
2023-05-08T13:32:00.559Z,1.52
2023-05-08T13:34:31.599Z,1.52
2023-05-08T13:37:02.594Z,1.58
2023-05-08T13:39:37.691Z,1.30
2023-05-08T13:42:08.776Z,1.75
2023-05-08T13:44:39.908Z,1.63
2023-05-08T13:47:10.898Z,1.98
2023-05-08T13:49:41.769Z,1.80
2023-05-08T13:52:15.134Z,1.50
2023-05-08T13:54:48.727Z,1.40
2023-05-08T13:57:20.266Z,1.50
2023-05-08T13:59:51.683Z,2.20
2023-05-08T14:02:22.984Z,1.40
2023-05-08T14:04:57.666Z,1.67
2023-05-08T14:07:28.710Z,1.33
2023-05-08T14:10:02.447Z,2.10
2023-05-08T14:12:36.575Z,1.65
2023-05-08T14:15:08.979Z,1.65
2023-05-08T14:17:39.939Z,1.55
2023-05-08T14:20:12.177Z,1.58
2023-05-08T14:22:43.431Z,1.58
2023-05-08T14:25:17.081Z,1.27
2023-05-08T14:27:48.112Z,1.70
2023-05-08T14:30:19.258Z,1.40
2023-05-08T14:32:50.411Z,1.63
2023-05-08T14:35:21.739Z,1.90
2023-05-08T14:37:53.963Z,1.63
2023-05-08T14:40:27.969Z,1.50
2023-05-08T14:42:58.899Z,1.20
2023-05-08T14:45:30.630Z,1.55
2023-05-08T14:48:02.072Z,1.77
2023-05-08T14:50:33.101Z,1.50
2023-05-08T14:53:04.802Z,1.40
2023-05-08T14:55:38.902Z,1.67
2023-05-08T14:58:10.484Z,1.40
2023-05-08T15:00:41.687Z,1.77
2023-05-08T15:03:13.961Z,1.95
2023-05-08T15:05:44.947Z,2.08
2023-05-08T15:08:16.051Z,1.45
2023-05-08T15:10:49.629Z,1.67
2023-05-08T15:13:20.765Z,1.90
2023-05-08T15:15:51.816Z,1.90
2023-05-08T15:18:24.924Z,1.50
2023-05-08T15:20:55.828Z,1.77
2023-05-08T15:23:27.357Z,1.63
2023-05-08T15:26:01.187Z,1.50
2023-05-08T15:28:32.404Z,2.80
2023-05-08T15:31:03.454Z,1.75
2023-05-08T15:33:34.695Z,1.70
2023-05-08T15:36:05.913Z,1.98
2023-05-08T15:38:40.547Z,1.50
2023-05-08T15:41:18.983Z,1.98
2023-05-08T15:43:52.405Z,1.10
2023-05-08T15:46:24.026Z,1.60
2023-05-08T15:48:54.954Z,1.85
2023-05-08T15:51:29.141Z,1.95
2023-05-08T15:54:00.056Z,1.95
2023-05-08T15:56:34.522Z,1.73
2023-05-08T15:59:06.854Z,1.42
2023-05-08T16:01:39.079Z,1.70
2023-05-08T16:04:10.268Z,1.90
2023-05-08T16:06:41.191Z,1.73
2023-05-08T16:09:12.345Z,1.45
2023-05-08T16:11:45.987Z,1.83
2023-05-08T16:14:17.391Z,1.40
2023-05-08T16:16:48.529Z,2.17
2023-05-08T16:23:29.455Z,2.05
2023-05-08T16:26:59.303Z,1.92
2023-05-08T16:30:08.050Z,1.85
2023-05-08T16:38:27.752Z,2.17
2023-05-08T16:41:04.268Z,2.03
2023-05-08T16:44:00.069Z,1.55
2023-05-08T16:46:31.422Z,1.70
2023-05-08T16:49:20.807Z,2.50
2023-05-08T16:51:54.928Z,2.03
2023-05-08T16:58:13.232Z,1.98
2023-05-08T17:00:45.298Z,2.00
2023-05-08T17:03:23.398Z,2.25
2023-05-08T17:05:57.113Z,1.85
2023-05-08T17:08:47.055Z,1.55
2023-05-08T17:11:22.309Z,2.08
2023-05-08T17:13:53.739Z,2.53
2023-05-08T17:16:24.887Z,2.00
2023-05-08T17:18:55.920Z,1.65
2023-05-08T17:21:31.335Z,2.00
2023-05-08T17:24:03.296Z,2.20
2023-05-08T17:26:36.374Z,1.38
2023-05-08T17:29:07.445Z,1.77
2023-05-08T17:31:38.360Z,1.73
2023-05-08T17:34:09.387Z,2.42
2023-05-08T17:36:43.078Z,1.63
2023-05-08T17:39:14.688Z,2.33
2023-05-08T17:41:45.890Z,2.15
2023-05-08T17:44:16.932Z,1.80
2023-05-08T17:46:48.414Z,2.20
2023-05-08T17:49:19.665Z,2.08
2023-05-08T17:51:53.200Z,2.22
2023-05-08T17:54:24.121Z,1.83
2023-05-08T17:56:54.959Z,1.80
2023-05-08T17:59:26.539Z,2.10
2023-05-08T18:01:58.256Z,2.05
2023-05-08T18:04:29.805Z,2.00
2023-05-08T18:07:07.623Z,2.75
2023-05-08T18:09:38.952Z,1.90
2023-05-08T18:12:10.470Z,1.73
2023-05-08T18:14:41.365Z,1.98
2023-05-08T18:17:15.065Z,2.40
2023-05-08T18:19:45.969Z,1.35
2023-05-08T18:22:19.661Z,1.67
2023-05-08T18:24:50.535Z,1.90
2023-05-08T18:27:21.916Z,1.60
2023-05-08T18:29:53.048Z,2.17
2023-05-08T18:32:24.032Z,2.10
2023-05-08T18:34:55.106Z,2.05
2023-05-08T18:37:28.681Z,2.20
2023-05-08T18:39:59.547Z,1.55
2023-05-08T18:42:30.488Z,1.70
2023-05-08T18:45:01.763Z,1.77
2023-05-08T18:47:33.040Z,2.63
2023-05-08T18:50:04.043Z,1.92
2023-05-08T18:52:37.821Z,2.28
2023-05-08T18:55:09.927Z,2.47
2023-05-08T18:57:40.935Z,2.08
2023-05-08T19:00:14.031Z,2.33
2023-05-08T19:02:45.186Z,2.10
2023-05-08T19:05:16.184Z,1.88
2023-05-08T19:07:49.836Z,1.92
2023-05-08T19:10:20.934Z,2.03
2023-05-08T19:12:52.452Z,1.83
2023-05-08T19:15:23.465Z,1.80
2023-05-08T19:17:54.336Z,2.08
2023-05-08T19:20:25.608Z,1.70
2023-05-08T19:22:59.312Z,1.98
2023-05-08T19:25:30.261Z,1.95
2023-05-08T19:28:01.369Z,1.77
2023-05-08T19:30:32.416Z,2.40
2023-05-08T19:33:03.418Z,2.30
2023-05-08T19:35:34.793Z,1.90
2023-05-08T19:38:08.487Z,2.38
2023-05-08T19:40:52.522Z,2.08
2023-05-08T19:43:28.077Z,2.15
2023-05-08T19:45:59.085Z,1.70
2023-05-08T19:48:30.126Z,1.75
2023-05-08T19:51:01.023Z,1.70
2023-05-08T19:53:34.607Z,1.60
2023-05-08T19:56:05.513Z,1.85
2023-05-08T19:58:36.405Z,1.55
2023-05-08T20:01:07.453Z,1.55
2023-05-08T20:03:38.949Z,2.40
2023-05-08T20:06:10.016Z,1.77
2023-05-08T20:08:43.565Z,1.83
2023-05-08T20:11:14.681Z,1.60
2023-05-08T20:13:45.529Z,1.67
2023-05-08T20:16:16.436Z,2.10
2023-05-08T20:18:47.679Z,1.67
2023-05-08T20:21:18.692Z,1.77
2023-05-08T20:23:52.519Z,1.60
2023-05-08T20:26:23.663Z,1.45
2023-05-08T20:28:54.730Z,1.88
2023-05-08T20:31:26.040Z,1.45
2023-05-08T20:33:57.283Z,1.25
2023-05-08T20:36:28.176Z,1.20
2023-05-08T20:39:01.816Z,1.33
2023-05-08T20:41:32.694Z,1.40
2023-05-08T20:44:03.818Z,1.60
2023-05-08T20:46:34.777Z,1.45
2023-05-08T20:49:06.345Z,1.42
2023-05-08T20:51:37.224Z,1.50
2023-05-08T20:54:10.832Z,1.50
2023-05-08T20:56:41.762Z,1.58
2023-05-08T20:59:12.747Z,1.63
2023-05-08T21:01:43.779Z,1.88
2023-05-08T21:04:14.780Z,1.90
2023-05-08T21:06:45.640Z,2.40
2023-05-08T21:09:19.516Z,2.78
2023-05-08T21:11:50.403Z,2.20
2023-05-08T21:14:21.438Z,2.50
2023-05-08T21:16:54.270Z,1.77
2023-05-08T21:19:25.420Z,2.83
2023-05-08T21:21:56.405Z,2.30
2023-05-08T21:24:30.099Z,2.63
2023-05-08T21:27:01.702Z,2.60
2023-05-08T21:29:33.032Z,2.08
2023-05-08T21:32:03.945Z,2.80
2023-05-08T21:34:34.807Z,3.20
2023-05-08T21:37:05.674Z,2.97
2023-05-08T21:39:39.285Z,2.63
2023-05-08T21:42:10.180Z,3.45
2023-05-08T21:44:40.990Z,2.88
2023-05-08T21:47:11.933Z,2.80
2023-05-08T21:49:43.172Z,2.75
2023-05-08T21:52:14.762Z,2.60
2023-05-08T21:54:48.522Z,2.08
2023-05-08T21:57:19.464Z,2.83
2023-05-08T21:59:51.132Z,2.88
2023-05-08T22:02:22.118Z,2.67
2023-05-08T22:04:53.391Z,2.65
2023-05-08T22:07:24.214Z,3.00
2023-05-08T22:09:58.194Z,2.33
2023-05-08T22:12:29.130Z,2.70
2023-05-08T22:15:00.012Z,2.88
2023-05-08T22:17:30.996Z,2.30
2023-05-08T22:20:02.518Z,2.28
2023-05-08T22:22:34.044Z,2.90
2023-05-08T22:25:08.367Z,2.20
2023-05-08T22:27:39.321Z,2.60
2023-05-08T22:30:11.564Z,2.97
2023-05-08T22:32:43.008Z,2.10
2023-05-08T22:35:14.296Z,2.55
2023-05-08T22:37:45.234Z,2.42
2023-05-08T22:40:19.150Z,2.85
2023-05-08T22:42:50.596Z,2.38
2023-05-08T22:45:21.881Z,2.30
2023-05-08T22:47:52.900Z,2.90
2023-05-08T22:50:24.387Z,2.13
2023-05-08T22:52:55.368Z,2.45
2023-05-08T22:55:28.829Z,2.22
2023-05-08T22:57:59.835Z,1.90
2023-05-08T23:00:30.840Z,2.03
2023-05-08T23:03:01.827Z,2.05
2023-05-08T23:05:32.867Z,2.38
2023-05-08T23:08:04.057Z,2.08
2023-05-08T23:10:37.514Z,1.80
2023-05-08T23:13:08.516Z,1.95
2023-05-08T23:15:40.153Z,2.75
2023-05-08T23:18:11.091Z,2.65
2023-05-08T23:20:42.068Z,1.50
2023-05-08T23:23:12.911Z,1.92
2023-05-08T23:25:46.624Z,2.28
2023-05-08T23:28:17.449Z,1.92
2023-05-08T23:30:48.284Z,2.17
2023-05-08T23:33:19.094Z,2.17
2023-05-08T23:35:49.967Z,2.10
2023-05-08T23:38:20.799Z,1.70
2023-05-08T23:40:54.561Z,1.88
2023-05-08T23:43:25.369Z,1.80
2023-05-08T23:45:56.323Z,2.08
2023-05-08T23:48:27.620Z,2.53
2023-05-08T23:50:58.421Z,2.17
2023-05-08T23:53:29.686Z,2.42
2023-05-08T23:56:03.107Z,2.33
2023-05-08T23:58:33.957Z,2.85
